sensor_id;sensor_type;location;lat;lon;timestamp;pressure;altitude;pressure_sealevel;temperature;humidity
52625;BME280;38519;52.540;13.410;2022-11-15T00:01:17;100821.25;;;5.26;100.00
52625;BME280;38519;52.540;13.410;2022-11-15T00:03:44;100814.41;;;5.27;100.00
52625;BME280;38519;52.540;13.410;2022-11-15T00:06:10;100826.56;;;5.28;100.00
52625;BME280;38519;52.540;13.410;2022-11-15T00:08:35;100826.00;;;5.22;100.00
52625;BME280;38519;52.540;13.410;2022-11-15T00:11:01;100827.78;;;5.23;100.00
52625;BME280;38519;52.540;13.410;2022-11-15T00:13:27;100821.41;;;5.19;100.00
52625;BME280;38519;52.540;13.410;2022-11-15T00:15:53;100813.50;;;5.18;100.00
52625;BME280;38519;52.540;13.410;2022-11-15T00:18:21;100798.59;;;5.15;100.00
52625;BME280;38519;52.540;13.410;2022-11-15T00:20:46;100806.50;;;5.17;100.00
52625;BME280;38519;52.540;13.410;2022-11-15T00:23:11;100806.19;;;5.14;100.00
52625;BME280;38519;52.540;13.410;2022-11-15T00:25:37;100789.91;;;5.15;100.00
52625;BME280;38519;52.540;13.410;2022-11-15T00:28:02;100787.19;;;5.13;100.00
52625;BME280;38519;52.540;13.410;2022-11-15T00:30:28;100784.72;;;5.23;100.00
52625;BME280;38519;52.540;13.410;2022-11-15T00:32:53;100801.50;;;5.09;100.00
52625;BME280;38519;52.540;13.410;2022-11-15T00:35:19;100792.22;;;5.11;100.00
52625;BME280;38519;52.540;13.410;2022-11-15T00:37:45;100787.22;;;5.04;100.00
52625;BME280;38519;52.540;13.410;2022-11-15T00:40:12;100785.38;;;5.03;100.00
52625;BME280;38519;52.540;13.410;2022-11-15T00:42:40;100787.69;;;5.00;100.00
52625;BME280;38519;52.540;13.410;2022-11-15T00:45:06;100785.59;;;4.96;100.00
52625;BME280;38519;52.540;13.410;2022-11-15T00:47:32;100773.69;;;4.98;100.00
52625;BME280;38519;52.540;13.410;2022-11-15T00:49:58;100778.88;;;4.98;100.00
52625;BME280;38519;52.540;13.410;2022-11-15T00:52:24;100777.03;;;4.97;100.00
52625;BME280;38519;52.540;13.410;2022-11-15T00:54:49;100771.09;;;4.98;100.00
52625;BME280;38519;52.540;13.410;2022-11-15T00:57:15;100774.28;;;4.96;100.00
52625;BME280;38519;52.540;13.410;2022-11-15T00:59:40;100770.22;;;4.98;100.00
52625;BME280;38519;52.540;13.410;2022-11-15T01:02:05;100773.41;;;4.95;100.00
52625;BME280;38519;52.540;13.410;2022-11-15T01:04:30;100773.69;;;4.98;100.00
52625;BME280;38519;52.540;13.410;2022-11-15T01:06:57;100775.09;;;4.95;100.00
52625;BME280;38519;52.540;13.410;2022-11-15T01:09:22;100763.81;;;4.94;100.00
52625;BME280;38519;52.540;13.410;2022-11-15T01:11:47;100771.56;;;4.94;100.00
52625;BME280;38519;52.540;13.410;2022-11-15T01:14:13;100772.19;;;4.91;100.00
52625;BME280;38519;52.540;13.410;2022-11-15T01:16:38;100766.88;;;4.90;100.00
52625;BME280;38519;52.540;13.410;2022-11-15T01:19:03;100769.16;;;4.87;100.00
52625;BME280;38519;52.540;13.410;2022-11-15T01:21:29;100762.94;;;4.85;100.00
52625;BME280;38519;52.540;13.410;2022-11-15T01:23:55;100757.44;;;4.90;100.00
52625;BME280;38519;52.540;13.410;2022-11-15T01:26:21;100751.97;;;4.87;100.00
52625;BME280;38519;52.540;13.410;2022-11-15T01:28:48;100744.25;;;4.79;100.00
52625;BME280;38519;52.540;13.410;2022-11-15T01:31:18;100739.81;;;4.78;100.00
52625;BME280;38519;52.540;13.410;2022-11-15T01:33:44;100743.16;;;4.77;100.00
52625;BME280;38519;52.540;13.410;2022-11-15T01:36:12;100743.78;;;4.74;100.00
52625;BME280;38519;52.540;13.410;2022-11-15T01:38:38;100731.00;;;4.76;100.00
52625;BME280;38519;52.540;13.410;2022-11-15T01:41:04;100736.34;;;4.68;100.00
52625;BME280;38519;52.540;13.410;2022-11-15T01:43:31;100733.00;;;4.69;100.00
52625;BME280;38519;52.540;13.410;2022-11-15T01:45:58;100728.56;;;4.68;100.00
52625;BME280;38519;52.540;13.410;2022-11-15T01:48:28;100721.13;;;4.71;100.00
52625;BME280;38519;52.540;13.410;2022-11-15T01:50:55;100715.03;;;4.71;100.00
52625;BME280;38519;52.540;13.410;2022-11-15T01:53:21;100705.13;;;4.76;100.00
52625;BME280;38519;52.540;13.410;2022-11-15T01:55:48;100707.09;;;4.78;100.00
52625;BME280;38519;52.540;13.410;2022-11-15T01:58:14;100708.63;;;4.85;100.00
52625;BME280;38519;52.540;13.410;2022-11-15T02:00:39;100705.72;;;4.82;100.00
52625;BME280;38519;52.540;13.410;2022-11-15T02:03:05;100703.31;;;4.74;100.00
52625;BME280;38519;52.540;13.410;2022-11-15T02:05:30;100695.53;;;4.74;100.00
52625;BME280;38519;52.540;13.410;2022-11-15T02:07:55;100695.25;;;4.71;100.00
52625;BME280;38519;52.540;13.410;2022-11-15T02:10:22;100691.75;;;4.71;100.00
52625;BME280;38519;52.540;13.410;2022-11-15T02:12:48;100694.66;;;4.65;100.00
52625;BME280;38519;52.540;13.410;2022-11-15T02:15:14;100692.22;;;4.67;100.00
52625;BME280;38519;52.540;13.410;2022-11-15T02:20:40;100694.94;;;4.68;100.00
52625;BME280;38519;52.540;13.410;2022-11-15T02:31:28;100697.97;;;4.73;100.00
52625;BME280;38519;52.540;13.410;2022-11-15T02:34:05;100702.06;;;4.80;100.00
52625;BME280;38519;52.540;13.410;2022-11-15T02:36:44;100697.03;;;4.81;100.00
52625;BME280;38519;52.540;13.410;2022-11-15T02:42:07;100691.84;;;4.81;100.00
52625;BME280;38519;52.540;13.410;2022-11-15T02:44:54;100691.56;;;4.87;100.00
52625;BME280;38519;52.540;13.410;2022-11-15T02:47:20;100687.63;;;4.82;100.00
52625;BME280;38519;52.540;13.410;2022-11-15T02:49:49;100683.78;;;4.87;100.00
52625;BME280;38519;52.540;13.410;2022-11-15T02:52:15;100680.56;;;4.89;100.00
52625;BME280;38519;52.540;13.410;2022-11-15T02:54:41;100675.38;;;4.89;100.00
52625;BME280;38519;52.540;13.410;2022-11-15T02:57:16;100677.06;;;4.89;100.00
52625;BME280;38519;52.540;13.410;2022-11-15T03:05:24;100678.16;;;4.82;100.00
52625;BME280;38519;52.540;13.410;2022-11-15T03:13:04;100677.06;;;4.89;100.00
52625;BME280;38519;52.540;13.410;2022-11-15T03:15:36;100674.47;;;4.89;100.00
52625;BME280;38519;52.540;13.410;2022-11-15T03:18:21;100666.13;;;4.91;100.00
52625;BME280;38519;52.540;13.410;2022-11-15T03:20:50;100669.28;;;4.98;100.00
52625;BME280;38519;52.540;13.410;2022-11-15T03:23:15;100667.25;;;5.04;100.00
52625;BME280;38519;52.540;13.410;2022-11-15T03:25:43;100667.59;;;4.98;100.00
52625;BME280;38519;52.540;13.410;2022-11-15T03:28:11;100671.38;;;5.02;100.00
52625;BME280;38519;52.540;13.410;2022-11-15T03:30:37;100673.81;;;5.00;100.00
52625;BME280;38519;52.540;13.410;2022-11-15T03:33:03;100669.50;;;5.09;100.00
52625;BME280;38519;52.540;13.410;2022-11-15T03:35:33;100665.59;;;5.04;100.00
52625;BME280;38519;52.540;13.410;2022-11-15T03:40:47;100671.66;;;5.05;100.00
52625;BME280;38519;52.540;13.410;2022-11-15T03:45:46;100662.22;;;5.05;100.00
52625;BME280;38519;52.540;13.410;2022-11-15T03:48:14;100663.44;;;5.09;100.00
52625;BME280;38519;52.540;13.410;2022-11-15T03:50:42;100658.72;;;5.05;100.00
52625;BME280;38519;52.540;13.410;2022-11-15T03:53:08;100661.00;;;5.10;100.00
52625;BME280;38519;52.540;13.410;2022-11-15T03:55:33;100653.84;;;5.08;100.00
52625;BME280;38519;52.540;13.410;2022-11-15T03:57:59;100652.94;;;5.07;100.00
52625;BME280;38519;52.540;13.410;2022-11-15T04:00:25;100652.50;;;5.03;100.00
52625;BME280;38519;52.540;13.410;2022-11-15T04:02:51;100651.09;;;5.06;100.00
52625;BME280;38519;52.540;13.410;2022-11-15T04:05:16;100644.59;;;5.01;100.00
52625;BME280;38519;52.540;13.410;2022-11-15T04:07:41;100653.75;;;4.98;100.00
52625;BME280;38519;52.540;13.410;2022-11-15T04:10:07;100644.03;;;4.95;100.00
52625;BME280;38519;52.540;13.410;2022-11-15T04:12:34;100654.69;;;4.89;100.00
52625;BME280;38519;52.540;13.410;2022-11-15T04:15:00;100645.69;;;4.95;100.00
52625;BME280;38519;52.540;13.410;2022-11-15T04:17:32;100651.03;;;4.96;100.00
52625;BME280;38519;52.540;13.410;2022-11-15T04:19:57;100650.22;;;5.06;100.00
52625;BME280;38519;52.540;13.410;2022-11-15T04:22:41;100645.78;;;5.05;100.00
52625;BME280;38519;52.540;13.410;2022-11-15T04:25:24;100648.97;;;5.02;100.00
52625;BME280;38519;52.540;13.410;2022-11-15T04:27:51;100643.06;;;5.03;100.00
52625;BME280;38519;52.540;13.410;2022-11-15T04:30:16;100643.06;;;5.03;100.00
52625;BME280;38519;52.540;13.410;2022-11-15T04:32:41;100654.44;;;5.05;100.00
52625;BME280;38519;52.540;13.410;2022-11-15T04:35:07;100645.19;;;5.07;100.00
52625;BME280;38519;52.540;13.410;2022-11-15T04:37:32;100643.91;;;5.13;100.00
52625;BME280;38519;52.540;13.410;2022-11-15T04:39:57;100641.94;;;5.10;100.00
52625;BME280;38519;52.540;13.410;2022-11-15T04:42:23;100645.47;;;5.10;100.00
52625;BME280;38519;52.540;13.410;2022-11-15T04:44:48;100640.75;;;5.06;100.00
52625;BME280;38519;52.540;13.410;2022-11-15T04:47:13;100643.63;;;5.09;100.00
52625;BME280;38519;52.540;13.410;2022-11-15T04:49:38;100632.09;;;5.06;100.00
52625;BME280;38519;52.540;13.410;2022-11-15T04:52:03;100622.97;;;5.01;100.00
52625;BME280;38519;52.540;13.410;2022-11-15T04:54:29;100620.88;;;4.97;100.00
52625;BME280;38519;52.540;13.410;2022-11-15T04:56:54;100627.72;;;4.96;100.00
52625;BME280;38519;52.540;13.410;2022-11-15T04:59:19;100622.41;;;4.95;100.00
52625;BME280;38519;52.540;13.410;2022-11-15T05:01:44;100626.66;;;4.94;100.00
52625;BME280;38519;52.540;13.410;2022-11-15T05:04:10;100621.16;;;5.00;100.00
52625;BME280;38519;52.540;13.410;2022-11-15T05:06:45;100632.25;;;4.99;100.00
52625;BME280;38519;52.540;13.410;2022-11-15T05:09:10;100637.28;;;4.97;100.00
52625;BME280;38519;52.540;13.410;2022-11-15T05:11:35;100622.72;;;4.98;100.00
52625;BME280;38519;52.540;13.410;2022-11-15T05:14:00;100628.50;;;4.95;100.00
52625;BME280;38519;52.540;13.410;2022-11-15T05:16:26;100637.00;;;4.94;100.00
52625;BME280;38519;52.540;13.410;2022-11-15T05:18:53;100633.38;;;4.92;100.00
52625;BME280;38519;52.540;13.410;2022-11-15T05:21:18;100632.34;;;4.90;100.00
52625;BME280;38519;52.540;13.410;2022-11-15T05:23:43;100633.09;;;4.89;100.00
52625;BME280;38519;52.540;13.410;2022-11-15T05:26:09;100636.09;;;4.93;100.00
52625;BME280;38519;52.540;13.410;2022-11-15T05:28:34;100636.72;;;4.91;100.00
52625;BME280;38519;52.540;13.410;2022-11-15T05:33:28;100623.09;;;5.02;100.00
52625;BME280;38519;52.540;13.410;2022-11-15T05:36:00;100627.22;;;5.00;100.00
52625;BME280;38519;52.540;13.410;2022-11-15T05:38:27;100622.97;;;5.01;100.00
52625;BME280;38519;52.540;13.410;2022-11-15T05:40:53;100626.63;;;5.03;100.00
52625;BME280;38519;52.540;13.410;2022-11-15T05:43:18;100629.34;;;5.04;100.00
52625;BME280;38519;52.540;13.410;2022-11-15T05:45:44;100629.22;;;5.03;100.00
52625;BME280;38519;52.540;13.410;2022-11-15T05:48:09;100629.81;;;5.00;100.00
52625;BME280;38519;52.540;13.410;2022-11-15T05:50:36;100634.53;;;5.04;100.00
52625;BME280;38519;52.540;13.410;2022-11-15T05:53:01;100630.88;;;5.02;100.00
52625;BME280;38519;52.540;13.410;2022-11-15T05:55:27;100633.31;;;5.01;100.00
52625;BME280;38519;52.540;13.410;2022-11-15T05:57:52;100636.69;;;5.00;100.00
52625;BME280;38519;52.540;13.410;2022-11-15T06:00:17;100635.50;;;4.96;100.00
52625;BME280;38519;52.540;13.410;2022-11-15T06:02:43;100637.94;;;4.95;100.00
52625;BME280;38519;52.540;13.410;2022-11-15T06:05:08;100636.16;;;4.85;100.00
52625;BME280;38519;52.540;13.410;2022-11-15T06:07:34;100636.56;;;4.89;100.00
52625;BME280;38519;52.540;13.410;2022-11-15T06:09:59;100636.44;;;4.88;100.00
52625;BME280;38519;52.540;13.410;2022-11-15T06:12:24;100639.00;;;4.88;100.00
52625;BME280;38519;52.540;13.410;2022-11-15T06:14:49;100639.38;;;4.82;100.00
52625;BME280;38519;52.540;13.410;2022-11-15T06:17:15;100640.63;;;4.77;100.00
52625;BME280;38519;52.540;13.410;2022-11-15T06:19:40;100634.38;;;4.75;100.00
52625;BME280;38519;52.540;13.410;2022-11-15T06:22:05;100643.81;;;4.74;100.00
52625;BME280;38519;52.540;13.410;2022-11-15T06:24:30;100641.06;;;4.73;100.00
52625;BME280;38519;52.540;13.410;2022-11-15T06:26:55;100641.44;;;4.67;100.00
52625;BME280;38519;52.540;13.410;2022-11-15T06:29:22;100656.16;;;4.68;100.00
52625;BME280;38519;52.540;13.410;2022-11-15T06:31:47;100644.75;;;4.66;100.00
52625;BME280;38519;52.540;13.410;2022-11-15T06:34:12;100647.19;;;4.65;100.00
52625;BME280;38519;52.540;13.410;2022-11-15T06:36:38;100648.88;;;4.64;100.00
52625;BME280;38519;52.540;13.410;2022-11-15T06:39:03;100643.56;;;4.63;100.00
52625;BME280;38519;52.540;13.410;2022-11-15T06:41:29;100648.75;;;4.63;100.00
52625;BME280;38519;52.540;13.410;2022-11-15T06:43:54;100649.63;;;4.63;100.00
52625;BME280;38519;52.540;13.410;2022-11-15T06:46:19;100652.72;;;4.59;100.00
52625;BME280;38519;52.540;13.410;2022-11-15T06:48:45;100646.00;;;4.61;100.00
52625;BME280;38519;52.540;13.410;2022-11-15T06:51:10;100647.53;;;4.59;100.00
52625;BME280;38519;52.540;13.410;2022-11-15T06:53:36;100653.91;;;4.63;100.00
52625;BME280;38519;52.540;13.410;2022-11-15T06:56:03;100658.31;;;4.64;100.00
52625;BME280;38519;52.540;13.410;2022-11-15T06:58:28;100655.72;;;4.64;100.00
52625;BME280;38519;52.540;13.410;2022-11-15T07:00:57;100652.97;;;4.62;100.00
52625;BME280;38519;52.540;13.410;2022-11-15T07:03:23;100662.13;;;4.67;100.00
52625;BME280;38519;52.540;13.410;2022-11-15T07:05:51;100662.25;;;4.69;100.00
52625;BME280;38519;52.540;13.410;2022-11-15T07:08:18;100657.53;;;4.73;100.00
52625;BME280;38519;52.540;13.410;2022-11-15T07:10:47;100666.34;;;4.76;100.00
52625;BME280;38519;52.540;13.410;2022-11-15T07:13:12;100670.13;;;4.79;100.00
52625;BME280;38519;52.540;13.410;2022-11-15T07:15:37;100669.69;;;4.74;100.00
52625;BME280;38519;52.540;13.410;2022-11-15T07:18:02;100671.00;;;4.80;100.00
52625;BME280;38519;52.540;13.410;2022-11-15T07:20:28;100669.66;;;4.83;100.00
52625;BME280;38519;52.540;13.410;2022-11-15T07:22:59;100675.72;;;4.84;100.00
52625;BME280;38519;52.540;13.410;2022-11-15T07:25:24;100678.91;;;4.90;100.00
52625;BME280;38519;52.540;13.410;2022-11-15T07:27:56;100680.72;;;4.91;100.00
52625;BME280;38519;52.540;13.410;2022-11-15T07:30:22;100674.47;;;4.98;100.00
52625;BME280;38519;52.540;13.410;2022-11-15T07:32:51;100684.91;;;5.08;100.00
52625;BME280;38519;52.540;13.410;2022-11-15T07:35:16;100676.53;;;5.10;100.00
52625;BME280;38519;52.540;13.410;2022-11-15T07:37:42;100678.28;;;5.20;100.00
52625;BME280;38519;52.540;13.410;2022-11-15T07:40:07;100669.28;;;5.25;100.00
52625;BME280;38519;52.540;13.410;2022-11-15T07:42:32;100674.88;;;5.30;100.00
52625;BME280;38519;52.540;13.410;2022-11-15T07:45:16;100668.00;;;5.31;100.00
52625;BME280;38519;52.540;13.410;2022-11-15T07:47:44;100666.03;;;5.28;100.00
52625;BME280;38519;52.540;13.410;2022-11-15T07:50:10;100665.09;;;5.36;100.00
52625;BME280;38519;52.540;13.410;2022-11-15T07:52:35;100669.16;;;5.43;100.00
52625;BME280;38519;52.540;13.410;2022-11-15T07:55:00;100666.19;;;5.48;100.00
52625;BME280;38519;52.540;13.410;2022-11-15T07:57:25;100666.00;;;5.56;100.00
52625;BME280;38519;52.540;13.410;2022-11-15T07:59:51;100664.59;;;5.59;100.00
52625;BME280;38519;52.540;13.410;2022-11-15T08:02:16;100660.59;;;5.63;100.00
52625;BME280;38519;52.540;13.410;2022-11-15T08:04:42;100652.50;;;5.69;100.00
52625;BME280;38519;52.540;13.410;2022-11-15T08:07:08;100651.38;;;5.75;100.00
52625;BME280;38519;52.540;13.410;2022-11-15T08:09:34;100655.78;;;5.76;100.00
52625;BME280;38519;52.540;13.410;2022-11-15T08:11:59;100649.47;;;5.83;100.00
52625;BME280;38519;52.540;13.410;2022-11-15T08:14:24;100656.25;;;5.91;100.00
52625;BME280;38519;52.540;13.410;2022-11-15T08:16:49;100656.69;;;5.96;100.00
52625;BME280;38519;52.540;13.410;2022-11-15T08:19:15;100650.41;;;6.03;100.00
52625;BME280;38519;52.540;13.410;2022-11-15T08:21:40;100654.97;;;6.05;100.00
52625;BME280;38519;52.540;13.410;2022-11-15T08:24:05;100654.38;;;6.18;100.00
52625;BME280;38519;52.540;13.410;2022-11-15T08:26:30;100655.16;;;6.27;100.00
52625;BME280;38519;52.540;13.410;2022-11-15T08:28:56;100654.81;;;6.33;100.00
52625;BME280;38519;52.540;13.410;2022-11-15T08:31:21;100656.25;;;6.40;100.00
52625;BME280;38519;52.540;13.410;2022-11-15T08:33:47;100655.25;;;6.48;100.00
52625;BME280;38519;52.540;13.410;2022-11-15T08:36:13;100658.38;;;6.54;100.00
52625;BME280;38519;52.540;13.410;2022-11-15T08:38:39;100654.50;;;6.59;100.00
52625;BME280;38519;52.540;13.410;2022-11-15T08:41:05;100645.84;;;6.69;100.00
52625;BME280;38519;52.540;13.410;2022-11-15T08:43:31;100654.16;;;6.75;100.00
52625;BME280;38519;52.540;13.410;2022-11-15T08:45:58;100652.88;;;6.80;100.00
52625;BME280;38519;52.540;13.410;2022-11-15T08:48:23;100647.59;;;6.89;100.00
52625;BME280;38519;52.540;13.410;2022-11-15T08:50:48;100654.47;;;6.99;100.00
52625;BME280;38519;52.540;13.410;2022-11-15T08:53:14;100651.88;;;7.09;100.00
52625;BME280;38519;52.540;13.410;2022-11-15T08:55:40;100644.88;;;7.18;100.00
52625;BME280;38519;52.540;13.410;2022-11-15T08:58:05;100649.03;;;7.26;100.00
52625;BME280;38519;52.540;13.410;2022-11-15T09:00:31;100653.44;;;7.38;100.00
52625;BME280;38519;52.540;13.410;2022-11-15T09:02:56;100661.88;;;7.45;100.00
52625;BME280;38519;52.540;13.410;2022-11-15T09:05:21;100666.28;;;7.57;100.00
52625;BME280;38519;52.540;13.410;2022-11-15T09:07:47;100666.00;;;7.64;100.00
52625;BME280;38519;52.540;13.410;2022-11-15T09:10:14;100659.78;;;7.62;100.00
52625;BME280;38519;52.540;13.410;2022-11-15T09:12:39;100657.97;;;7.71;100.00
52625;BME280;38519;52.540;13.410;2022-11-15T09:15:05;100662.41;;;7.72;100.00
52625;BME280;38519;52.540;13.410;2022-11-15T09:17:31;100655.88;;;7.77;100.00
52625;BME280;38519;52.540;13.410;2022-11-15T09:19:56;100659.50;;;7.90;100.00
52625;BME280;38519;52.540;13.410;2022-11-15T09:22:21;100648.56;;;7.94;100.00
52625;BME280;38519;52.540;13.410;2022-11-15T09:24:46;100650.63;;;7.98;100.00
52625;BME280;38519;52.540;13.410;2022-11-15T09:27:12;100652.31;;;7.97;100.00
52625;BME280;38519;52.540;13.410;2022-11-15T09:29:38;100653.63;;;8.02;100.00
52625;BME280;38519;52.540;13.410;2022-11-15T09:32:03;100659.16;;;8.17;100.00
52625;BME280;38519;52.540;13.410;2022-11-15T09:34:28;100655.16;;;8.33;100.00
52625;BME280;38519;52.540;13.410;2022-11-15T09:36:55;100650.34;;;8.48;100.00
52625;BME280;38519;52.540;13.410;2022-11-15T09:39:20;100661.47;;;8.57;100.00
52625;BME280;38519;52.540;13.410;2022-11-15T09:41:57;100654.03;;;8.62;100.00
52625;BME280;38519;52.540;13.410;2022-11-15T09:49:33;100655.78;;;8.95;100.00
52625;BME280;38519;52.540;13.410;2022-11-15T09:51:58;100658.75;;;9.00;100.00
52625;BME280;38519;52.540;13.410;2022-11-15T09:54:39;100650.16;;;9.01;100.00
52625;BME280;38519;52.540;13.410;2022-11-15T10:05:10;100636.88;;;9.20;100.00
52625;BME280;38519;52.540;13.410;2022-11-15T10:07:48;100634.03;;;9.17;100.00
52625;BME280;38519;52.540;13.410;2022-11-15T10:13:01;100631.56;;;9.30;100.00
52625;BME280;38519;52.540;13.410;2022-11-15T10:15:27;100626.06;;;9.49;100.00
52625;BME280;38519;52.540;13.410;2022-11-15T10:20:19;100616.88;;;9.66;100.00
52625;BME280;38519;52.540;13.410;2022-11-15T10:22:46;100613.38;;;9.65;100.00
52625;BME280;38519;52.540;13.410;2022-11-15T10:27:38;100608.06;;;9.64;100.00
52625;BME280;38519;52.540;13.410;2022-11-15T10:30:06;100612.00;;;9.71;100.00
52625;BME280;38519;52.540;13.410;2022-11-15T10:32:35;100604.09;;;9.81;100.00
52625;BME280;38519;52.540;13.410;2022-11-15T10:35:01;100595.25;;;9.91;100.00
52625;BME280;38519;52.540;13.410;2022-11-15T10:37:40;100591.13;;;10.06;100.00
52625;BME280;38519;52.540;13.410;2022-11-15T10:40:13;100585.38;;;10.10;100.00
52625;BME280;38519;52.540;13.410;2022-11-15T10:42:39;100588.66;;;10.19;100.00
52625;BME280;38519;52.540;13.410;2022-11-15T10:45:16;100582.28;;;10.28;100.00
52625;BME280;38519;52.540;13.410;2022-11-15T10:47:47;100578.72;;;10.27;100.00
52625;BME280;38519;52.540;13.410;2022-11-15T10:50:26;100572.53;;;10.37;100.00
52625;BME280;38519;52.540;13.410;2022-11-15T10:52:51;100568.44;;;10.41;100.00
52625;BME280;38519;52.540;13.410;2022-11-15T10:57:48;100561.94;;;10.47;100.00
52625;BME280;38519;52.540;13.410;2022-11-15T11:05:28;100556.88;;;10.62;100.00
52625;BME280;38519;52.540;13.410;2022-11-15T11:08:02;100550.38;;;10.69;100.00
52625;BME280;38519;52.540;13.410;2022-11-15T11:10:27;100549.31;;;10.79;100.00
52625;BME280;38519;52.540;13.410;2022-11-15T11:12:53;100549.13;;;10.75;100.00
52625;BME280;38519;52.540;13.410;2022-11-15T11:15:18;100537.59;;;10.85;100.00
52625;BME280;38519;52.540;13.410;2022-11-15T11:20:36;100544.47;;;11.10;100.00
52625;BME280;38519;52.540;13.410;2022-11-15T11:44:03;100533.25;;;11.38;100.00
52625;BME280;38519;52.540;13.410;2022-11-15T11:46:37;100525.63;;;11.27;100.00
52625;BME280;38519;52.540;13.410;2022-11-15T11:49:08;100521.31;;;11.41;100.00
52625;BME280;38519;52.540;13.410;2022-11-15T11:54:55;100517.97;;;11.44;99.93
52625;BME280;38519;52.540;13.410;2022-11-15T11:57:23;100518.97;;;11.46;100.00
52625;BME280;38519;52.540;13.410;2022-11-15T11:59:54;100521.22;;;11.40;100.00
52625;BME280;38519;52.540;13.410;2022-11-15T12:02:27;100513.59;;;11.43;100.00
52625;BME280;38519;52.540;13.410;2022-11-15T12:04:55;100512.75;;;11.44;100.00
52625;BME280;38519;52.540;13.410;2022-11-15T12:07:24;100507.94;;;11.37;100.00
52625;BME280;38519;52.540;13.410;2022-11-15T12:17:50;100486.50;;;11.42;100.00
52625;BME280;38519;52.540;13.410;2022-11-15T12:20:26;100493.34;;;11.54;100.00
52625;BME280;38519;52.540;13.410;2022-11-15T12:22:59;100492.34;;;11.52;100.00
52625;BME280;38519;52.540;13.410;2022-11-15T12:25:46;100489.44;;;11.34;100.00
52625;BME280;38519;52.540;13.410;2022-11-15T12:33:28;100487.59;;;11.46;100.00
52625;BME280;38519;52.540;13.410;2022-11-15T12:36:02;100481.47;;;11.45;100.00
52625;BME280;38519;52.540;13.410;2022-11-15T12:41:12;100480.28;;;11.54;100.00
52625;BME280;38519;52.540;13.410;2022-11-15T12:43:38;100473.06;;;11.50;100.00
52625;BME280;38519;52.540;13.410;2022-11-15T12:46:05;100470.94;;;11.57;100.00
52625;BME280;38519;52.540;13.410;2022-11-15T12:51:03;100465.78;;;11.45;100.00
52625;BME280;38519;52.540;13.410;2022-11-15T12:53:32;100459.69;;;11.45;100.00
52625;BME280;38519;52.540;13.410;2022-11-15T12:58:40;100454.34;;;11.43;100.00
52625;BME280;38519;52.540;13.410;2022-11-15T13:01:07;100450.34;;;11.35;100.00
52625;BME280;38519;52.540;13.410;2022-11-15T13:03:32;100445.88;;;11.34;100.00
52625;BME280;38519;52.540;13.410;2022-11-15T13:05:59;100441.28;;;11.43;100.00
52625;BME280;38519;52.540;13.410;2022-11-15T13:08:41;100448.00;;;11.53;100.00
52625;BME280;38519;52.540;13.410;2022-11-15T13:13:52;100446.69;;;11.46;100.00
52625;BME280;38519;52.540;13.410;2022-11-15T13:16:18;100440.75;;;11.49;100.00
52625;BME280;38519;52.540;13.410;2022-11-15T13:18:48;100443.34;;;11.49;100.00
52625;BME280;38519;52.540;13.410;2022-11-15T13:21:19;100439.56;;;11.44;100.00
52625;BME280;38519;52.540;13.410;2022-11-15T13:24:03;100442.06;;;11.42;100.00
52625;BME280;38519;52.540;13.410;2022-11-15T13:26:29;100432.53;;;11.43;100.00
52625;BME280;38519;52.540;13.410;2022-11-15T13:28:54;100434.94;;;11.40;100.00
52625;BME280;38519;52.540;13.410;2022-11-15T13:31:31;100429.19;;;11.45;100.00
52625;BME280;38519;52.540;13.410;2022-11-15T13:34:00;100432.44;;;11.41;100.00
52625;BME280;38519;52.540;13.410;2022-11-15T13:36:28;100431.00;;;11.46;100.00
52625;BME280;38519;52.540;13.410;2022-11-15T13:38:58;100432.53;;;11.43;100.00
52625;BME280;38519;52.540;13.410;2022-11-15T13:41:26;100430.50;;;11.39;100.00
52625;BME280;38519;52.540;13.410;2022-11-15T13:43:52;100430.94;;;11.32;100.00
52625;BME280;38519;52.540;13.410;2022-11-15T13:46:19;100432.94;;;11.22;100.00
52625;BME280;38519;52.540;13.410;2022-11-15T13:48:45;100436.34;;;11.21;100.00
52625;BME280;38519;52.540;13.410;2022-11-15T13:51:19;100430.13;;;11.19;100.00
52625;BME280;38519;52.540;13.410;2022-11-15T13:53:47;100438.06;;;11.21;100.00
52625;BME280;38519;52.540;13.410;2022-11-15T13:56:14;100436.97;;;11.17;100.00
52625;BME280;38519;52.540;13.410;2022-11-15T13:58:40;100429.41;;;11.22;100.00
52625;BME280;38519;52.540;13.410;2022-11-15T14:01:06;100427.81;;;11.24;100.00
52625;BME280;38519;52.540;13.410;2022-11-15T14:03:33;100428.19;;;11.17;100.00
52625;BME280;38519;52.540;13.410;2022-11-15T14:08:27;100421.09;;;11.14;100.00
52625;BME280;38519;52.540;13.410;2022-11-15T14:13:37;100433.22;;;11.14;100.00
52625;BME280;38519;52.540;13.410;2022-11-15T14:18:57;100443.25;;;11.07;100.00
52625;BME280;38519;52.540;13.410;2022-11-15T14:21:22;100441.94;;;11.01;100.00
52625;BME280;38519;52.540;13.410;2022-11-15T14:23:48;100438.34;;;10.99;100.00
52625;BME280;38519;52.540;13.410;2022-11-15T14:26:25;100439.75;;;11.07;100.00
52625;BME280;38519;52.540;13.410;2022-11-15T14:28:51;100434.72;;;11.10;100.00
52625;BME280;38519;52.540;13.410;2022-11-15T14:31:17;100428.81;;;11.13;100.00
52625;BME280;38519;52.540;13.410;2022-11-15T14:33:42;100426.47;;;11.04;100.00
52625;BME280;38519;52.540;13.410;2022-11-15T14:36:11;100422.78;;;11.00;100.00
52625;BME280;38519;52.540;13.410;2022-11-15T14:38:37;100420.25;;;10.88;100.00